sensor_id;sensor_type;location;lat;lon;timestamp;temperature;humidity
12655;DHT22;6392;44.644;11.448;2022-08-19T00:01:29;22.30;99.90
12655;DHT22;6392;44.644;11.448;2022-08-19T00:03:57;22.30;99.90
12655;DHT22;6392;44.644;11.448;2022-08-19T00:06:24;22.30;99.90
12655;DHT22;6392;44.644;11.448;2022-08-19T00:08:51;22.30;99.90
12655;DHT22;6392;44.644;11.448;2022-08-19T00:11:18;22.30;99.90
12655;DHT22;6392;44.644;11.448;2022-08-19T00:13:47;22.30;99.90
12655;DHT22;6392;44.644;11.448;2022-08-19T00:16:15;22.30;99.90
12655;DHT22;6392;44.644;11.448;2022-08-19T00:18:43;22.30;99.90
12655;DHT22;6392;44.644;11.448;2022-08-19T00:21:10;22.30;99.90
12655;DHT22;6392;44.644;11.448;2022-08-19T00:23:37;22.30;99.90
12655;DHT22;6392;44.644;11.448;2022-08-19T00:26:06;22.30;99.90
12655;DHT22;6392;44.644;11.448;2022-08-19T00:28:33;22.30;99.90
12655;DHT22;6392;44.644;11.448;2022-08-19T00:31:03;22.30;99.90
12655;DHT22;6392;44.644;11.448;2022-08-19T00:33:30;22.30;99.90
12655;DHT22;6392;44.644;11.448;2022-08-19T00:35:58;22.20;99.90
12655;DHT22;6392;44.644;11.448;2022-08-19T00:38:25;22.20;99.90
12655;DHT22;6392;44.644;11.448;2022-08-19T00:40:52;22.20;99.90
12655;DHT22;6392;44.644;11.448;2022-08-19T00:43:21;22.10;99.90
12655;DHT22;6392;44.644;11.448;2022-08-19T00:45:49;22.10;99.90
12655;DHT22;6392;44.644;11.448;2022-08-19T00:48:19;22.00;99.90
12655;DHT22;6392;44.644;11.448;2022-08-19T00:50:48;22.10;99.90
12655;DHT22;6392;44.644;11.448;2022-08-19T00:53:22;22.10;99.90
12655;DHT22;6392;44.644;11.448;2022-08-19T00:55:52;22.10;99.90
12655;DHT22;6392;44.644;11.448;2022-08-19T00:58:22;22.00;99.90
12655;DHT22;6392;44.644;11.448;2022-08-19T01:00:51;22.00;99.90
12655;DHT22;6392;44.644;11.448;2022-08-19T01:03:21;22.20;99.90
12655;DHT22;6392;44.644;11.448;2022-08-19T01:05:50;22.50;99.90
12655;DHT22;6392;44.644;11.448;2022-08-19T01:08:19;22.80;99.90
12655;DHT22;6392;44.644;11.448;2022-08-19T01:10:49;23.30;99.90
12655;DHT22;6392;44.644;11.448;2022-08-19T01:13:19;23.90;99.90
12655;DHT22;6392;44.644;11.448;2022-08-19T01:15:55;24.00;99.90
12655;DHT22;6392;44.644;11.448;2022-08-19T01:18:25;24.00;99.90
12655;DHT22;6392;44.644;11.448;2022-08-19T01:20:55;23.90;99.90
12655;DHT22;6392;44.644;11.448;2022-08-19T01:23:24;23.80;99.90
12655;DHT22;6392;44.644;11.448;2022-08-19T01:26:09;23.40;99.90
12655;DHT22;6392;44.644;11.448;2022-08-19T01:28:37;23.00;99.90
12655;DHT22;6392;44.644;11.448;2022-08-19T01:31:04;22.70;99.90
12655;DHT22;6392;44.644;11.448;2022-08-19T01:33:31;22.30;99.90
12655;DHT22;6392;44.644;11.448;2022-08-19T01:36:05;22.00;99.90
12655;DHT22;6392;44.644;11.448;2022-08-19T01:38:37;21.80;99.90
12655;DHT22;6392;44.644;11.448;2022-08-19T01:41:05;21.50;99.90
12655;DHT22;6392;44.644;11.448;2022-08-19T01:43:33;21.40;99.90
12655;DHT22;6392;44.644;11.448;2022-08-19T01:46:00;21.30;99.90
12655;DHT22;6392;44.644;11.448;2022-08-19T01:48:33;21.20;99.90
12655;DHT22;6392;44.644;11.448;2022-08-19T01:51:01;21.20;99.90
12655;DHT22;6392;44.644;11.448;2022-08-19T01:53:28;21.20;99.90
12655;DHT22;6392;44.644;11.448;2022-08-19T01:55:57;21.10;99.90
12655;DHT22;6392;44.644;11.448;2022-08-19T01:58:28;21.10;99.90
12655;DHT22;6392;44.644;11.448;2022-08-19T02:00:56;21.10;99.90
12655;DHT22;6392;44.644;11.448;2022-08-19T02:03:24;21.10;99.90
12655;DHT22;6392;44.644;11.448;2022-08-19T02:05:55;21.10;99.90
12655;DHT22;6392;44.644;11.448;2022-08-19T02:08:23;21.20;99.90
12655;DHT22;6392;44.644;11.448;2022-08-19T02:10:50;21.20;99.90
12655;DHT22;6392;44.644;11.448;2022-08-19T02:13:18;21.10;99.90
12655;DHT22;6392;44.644;11.448;2022-08-19T02:15:46;21.10;99.90
12655;DHT22;6392;44.644;11.448;2022-08-19T02:18:13;21.20;99.90
12655;DHT22;6392;44.644;11.448;2022-08-19T02:20:41;21.20;99.90
12655;DHT22;6392;44.644;11.448;2022-08-19T02:23:10;21.30;99.90
12655;DHT22;6392;44.644;11.448;2022-08-19T02:25:38;21.20;99.90
12655;DHT22;6392;44.644;11.448;2022-08-19T02:28:06;21.20;99.90
12655;DHT22;6392;44.644;11.448;2022-08-19T02:30:34;21.10;99.90
12655;DHT22;6392;44.644;11.448;2022-08-19T02:33:01;21.00;99.90
12655;DHT22;6392;44.644;11.448;2022-08-19T02:35:28;21.00;99.90
12655;DHT22;6392;44.644;11.448;2022-08-19T02:37:55;21.00;99.90
12655;DHT22;6392;44.644;11.448;2022-08-19T02:40:40;20.90;99.90
12655;DHT22;6392;44.644;11.448;2022-08-19T02:43:09;20.80;99.90
12655;DHT22;6392;44.644;11.448;2022-08-19T02:45:38;20.80;99.90
12655;DHT22;6392;44.644;11.448;2022-08-19T02:48:06;20.70;99.90
12655;DHT22;6392;44.644;11.448;2022-08-19T02:50:37;20.70;99.90
12655;DHT22;6392;44.644;11.448;2022-08-19T02:53:05;20.70;99.90
12655;DHT22;6392;44.644;11.448;2022-08-19T02:55:32;20.70;99.90
12655;DHT22;6392;44.644;11.448;2022-08-19T02:57:59;20.70;99.90
12655;DHT22;6392;44.644;11.448;2022-08-19T03:00:27;20.70;99.90
12655;DHT22;6392;44.644;11.448;2022-08-19T03:02:55;20.80;99.90
12655;DHT22;6392;44.644;11.448;2022-08-19T03:05:23;20.80;99.90
12655;DHT22;6392;44.644;11.448;2022-08-19T03:07:50;20.90;99.90
12655;DHT22;6392;44.644;11.448;2022-08-19T03:10:17;20.90;99.90
12655;DHT22;6392;44.644;11.448;2022-08-19T03:12:44;20.90;99.90
12655;DHT22;6392;44.644;11.448;2022-08-19T03:15:11;20.90;99.90
12655;DHT22;6392;44.644;11.448;2022-08-19T03:17:39;20.90;99.90
12655;DHT22;6392;44.644;11.448;2022-08-19T03:20:09;20.90;99.90
12655;DHT22;6392;44.644;11.448;2022-08-19T03:22:36;21.00;99.90
12655;DHT22;6392;44.644;11.448;2022-08-19T03:25:03;21.00;99.90
12655;DHT22;6392;44.644;11.448;2022-08-19T03:27:30;21.10;99.90
12655;DHT22;6392;44.644;11.448;2022-08-19T03:29:57;21.10;99.90
12655;DHT22;6392;44.644;11.448;2022-08-19T03:32:25;21.10;99.90
12655;DHT22;6392;44.644;11.448;2022-08-19T03:34:52;21.10;99.90
12655;DHT22;6392;44.644;11.448;2022-08-19T03:37:20;21.10;99.90
12655;DHT22;6392;44.644;11.448;2022-08-19T03:39:48;21.20;99.90
12655;DHT22;6392;44.644;11.448;2022-08-19T03:42:15;21.20;99.90
12655;DHT22;6392;44.644;11.448;2022-08-19T03:44:42;21.30;99.90
12655;DHT22;6392;44.644;11.448;2022-08-19T03:47:10;21.20;99.90
12655;DHT22;6392;44.644;11.448;2022-08-19T03:49:41;21.20;99.90
12655;DHT22;6392;44.644;11.448;2022-08-19T03:52:09;21.20;99.90
12655;DHT22;6392;44.644;11.448;2022-08-19T03:54:37;21.20;99.90
12655;DHT22;6392;44.644;11.448;2022-08-19T03:57:05;21.20;99.90
12655;DHT22;6392;44.644;11.448;2022-08-19T03:59:35;21.20;99.90
12655;DHT22;6392;44.644;11.448;2022-08-19T04:02:06;21.30;99.90
12655;DHT22;6392;44.644;11.448;2022-08-19T04:04:35;21.30;99.90
12655;DHT22;6392;44.644;11.448;2022-08-19T04:07:03;21.20;99.90
12655;DHT22;6392;44.644;11.448;2022-08-19T04:09:30;21.30;99.90
12655;DHT22;6392;44.644;11.448;2022-08-19T04:11:58;21.30;99.90
12655;DHT22;6392;44.644;11.448;2022-08-19T04:14:28;21.40;99.90
12655;DHT22;6392;44.644;11.448;2022-08-19T04:16:56;21.40;99.90
12655;DHT22;6392;44.644;11.448;2022-08-19T04:19:23;21.40;99.90
12655;DHT22;6392;44.644;11.448;2022-08-19T04:21:52;21.40;99.90
12655;DHT22;6392;44.644;11.448;2022-08-19T04:24:21;21.40;99.90
12655;DHT22;6392;44.644;11.448;2022-08-19T04:26:48;21.40;99.90
12655;DHT22;6392;44.644;11.448;2022-08-19T04:29:20;21.40;99.90
12655;DHT22;6392;44.644;11.448;2022-08-19T04:31:48;21.30;99.90
12655;DHT22;6392;44.644;11.448;2022-08-19T04:34:17;21.30;99.90
12655;DHT22;6392;44.644;11.448;2022-08-19T04:36:47;21.30;99.90
12655;DHT22;6392;44.644;11.448;2022-08-19T04:39:19;21.30;99.90
12655;DHT22;6392;44.644;11.448;2022-08-19T04:41:48;21.40;99.90
12655;DHT22;6392;44.644;11.448;2022-08-19T04:44:34;21.40;99.90
12655;DHT22;6392;44.644;11.448;2022-08-19T04:47:02;21.40;99.90
12655;DHT22;6392;44.644;11.448;2022-08-19T04:49:31;21.30;99.90
12655;DHT22;6392;44.644;11.448;2022-08-19T04:51:58;21.30;99.90
12655;DHT22;6392;44.644;11.448;2022-08-19T04:54:25;21.20;99.90
12655;DHT22;6392;44.644;11.448;2022-08-19T04:56:53;21.30;99.90
12655;DHT22;6392;44.644;11.448;2022-08-19T04:59:20;21.20;99.90
12655;DHT22;6392;44.644;11.448;2022-08-19T05:01:49;21.20;99.90
12655;DHT22;6392;44.644;11.448;2022-08-19T05:04:18;21.20;99.90
12655;DHT22;6392;44.644;11.448;2022-08-19T05:06:46;21.10;99.90
12655;DHT22;6392;44.644;11.448;2022-08-19T05:09:14;21.10;99.90
12655;DHT22;6392;44.644;11.448;2022-08-19T05:11:42;21.20;99.90
12655;DHT22;6392;44.644;11.448;2022-08-19T05:14:10;21.20;99.90
12655;DHT22;6392;44.644;11.448;2022-08-19T05:16:38;21.20;99.90
12655;DHT22;6392;44.644;11.448;2022-08-19T05:19:07;21.20;99.90
12655;DHT22;6392;44.644;11.448;2022-08-19T05:22:03;21.20;99.90
12655;DHT22;6392;44.644;11.448;2022-08-19T05:24:47;21.20;99.90
12655;DHT22;6392;44.644;11.448;2022-08-19T05:27:14;21.10;99.90
12655;DHT22;6392;44.644;11.448;2022-08-19T05:29:41;21.10;99.90
12655;DHT22;6392;44.644;11.448;2022-08-19T05:32:08;21.10;99.90
12655;DHT22;6392;44.644;11.448;2022-08-19T05:34:37;21.10;99.90
12655;DHT22;6392;44.644;11.448;2022-08-19T05:37:05;21.00;99.90
12655;DHT22;6392;44.644;11.448;2022-08-19T05:39:35;20.90;99.90
12655;DHT22;6392;44.644;11.448;2022-08-19T05:42:05;20.90;99.90
12655;DHT22;6392;44.644;11.448;2022-08-19T05:44:35;20.90;99.90
12655;DHT22;6392;44.644;11.448;2022-08-19T05:47:05;20.80;99.90
12655;DHT22;6392;44.644;11.448;2022-08-19T05:49:34;20.70;99.90
12655;DHT22;6392;44.644;11.448;2022-08-19T05:52:04;20.60;99.90
12655;DHT22;6392;44.644;11.448;2022-08-19T05:54:32;20.50;99.90
12655;DHT22;6392;44.644;11.448;2022-08-19T06:13:02;18.30;99.90
12655;DHT22;6392;44.644;11.448;2022-08-19T06:15:30;17.80;99.90
12655;DHT22;6392;44.644;11.448;2022-08-19T06:17:57;17.70;99.90
12655;DHT22;6392;44.644;11.448;2022-08-19T06:20:24;17.60;99.90
12655;DHT22;6392;44.644;11.448;2022-08-19T06:22:51;17.80;99.90
12655;DHT22;6392;44.644;11.448;2022-08-19T06:25:18;17.90;99.90
12655;DHT22;6392;44.644;11.448;2022-08-19T06:27:45;18.00;99.90
12655;DHT22;6392;44.644;11.448;2022-08-19T06:30:14;18.10;99.90
12655;DHT22;6392;44.644;11.448;2022-08-19T06:32:41;18.10;99.90
12655;DHT22;6392;44.644;11.448;2022-08-19T06:35:09;18.10;99.90
12655;DHT22;6392;44.644;11.448;2022-08-19T06:37:36;18.20;99.90
12655;DHT22;6392;44.644;11.448;2022-08-19T06:40:04;18.30;99.90
12655;DHT22;6392;44.644;11.448;2022-08-19T06:42:33;18.40;99.90
12655;DHT22;6392;44.644;11.448;2022-08-19T06:45:01;18.40;99.90
12655;DHT22;6392;44.644;11.448;2022-08-19T06:47:31;18.50;99.90
12655;DHT22;6392;44.644;11.448;2022-08-19T06:50:00;18.60;99.90
12655;DHT22;6392;44.644;11.448;2022-08-19T06:52:28;18.70;99.90
12655;DHT22;6392;44.644;11.448;2022-08-19T06:54:55;18.70;99.90
12655;DHT22;6392;44.644;11.448;2022-08-19T06:57:23;18.70;99.90
12655;DHT22;6392;44.644;11.448;2022-08-19T06:59:50;18.80;99.90
12655;DHT22;6392;44.644;11.448;2022-08-19T07:02:18;18.80;99.90
12655;DHT22;6392;44.644;11.448;2022-08-19T07:04:47;18.80;99.90
12655;DHT22;6392;44.644;11.448;2022-08-19T07:07:15;18.90;99.90
12655;DHT22;6392;44.644;11.448;2022-08-19T07:09:43;18.90;99.90
12655;DHT22;6392;44.644;11.448;2022-08-19T07:12:13;18.90;99.90
12655;DHT22;6392;44.644;11.448;2022-08-19T07:14:41;18.90;99.90
12655;DHT22;6392;44.644;11.448;2022-08-19T07:17:11;19.00;99.90
12655;DHT22;6392;44.644;11.448;2022-08-19T07:19:39;19.00;99.90
12655;DHT22;6392;44.644;11.448;2022-08-19T07:22:10;19.00;99.90
12655;DHT22;6392;44.644;11.448;2022-08-19T07:24:38;19.00;99.90
12655;DHT22;6392;44.644;11.448;2022-08-19T07:27:05;19.00;99.90
12655;DHT22;6392;44.644;11.448;2022-08-19T07:29:34;19.10;99.90
12655;DHT22;6392;44.644;11.448;2022-08-19T07:32:03;19.10;99.90
12655;DHT22;6392;44.644;11.448;2022-08-19T07:34:32;19.10;99.90
12655;DHT22;6392;44.644;11.448;2022-08-19T07:37:03;19.10;99.90
12655;DHT22;6392;44.644;11.448;2022-08-19T07:39:34;19.20;99.90
12655;DHT22;6392;44.644;11.448;2022-08-19T07:42:05;19.20;99.90
12655;DHT22;6392;44.644;11.448;2022-08-19T07:44:33;19.30;99.90
12655;DHT22;6392;44.644;11.448;2022-08-19T07:47:01;19.40;99.90
12655;DHT22;6392;44.644;11.448;2022-08-19T07:49:28;19.40;99.90
12655;DHT22;6392;44.644;11.448;2022-08-19T07:51:58;19.50;99.90
12655;DHT22;6392;44.644;11.448;2022-08-19T07:54:29;19.50;99.90
12655;DHT22;6392;44.644;11.448;2022-08-19T07:56:57;19.40;99.90
12655;DHT22;6392;44.644;11.448;2022-08-19T07:59:25;19.50;99.90
12655;DHT22;6392;44.644;11.448;2022-08-19T08:01:52;19.50;99.90
12655;DHT22;6392;44.644;11.448;2022-08-19T08:04:19;19.50;99.90
12655;DHT22;6392;44.644;11.448;2022-08-19T08:07:04;19.60;99.90
12655;DHT22;6392;44.644;11.448;2022-08-19T08:09:49;19.60;99.90
12655;DHT22;6392;44.644;11.448;2022-08-19T08:12:20;19.60;99.90
12655;DHT22;6392;44.644;11.448;2022-08-19T08:14:49;19.60;99.90
12655;DHT22;6392;44.644;11.448;2022-08-19T08:17:18;19.60;99.90
12655;DHT22;6392;44.644;11.448;2022-08-19T08:19:45;19.60;99.90
12655;DHT22;6392;44.644;11.448;2022-08-19T08:22:16;19.60;99.90
12655;DHT22;6392;44.644;11.448;2022-08-19T08:25:01;19.60;99.90
12655;DHT22;6392;44.644;11.448;2022-08-19T08:27:30;19.60;99.90
12655;DHT22;6392;44.644;11.448;2022-08-19T08:29:57;19.70;99.90
12655;DHT22;6392;44.644;11.448;2022-08-19T08:32:24;19.70;99.90
12655;DHT22;6392;44.644;11.448;2022-08-19T08:34:52;19.70;99.90
12655;DHT22;6392;44.644;11.448;2022-08-19T08:37:19;19.70;99.90
12655;DHT22;6392;44.644;11.448;2022-08-19T08:39:47;19.80;99.90
12655;DHT22;6392;44.644;11.448;2022-08-19T08:42:22;19.80;99.90
12655;DHT22;6392;44.644;11.448;2022-08-19T08:45:00;19.90;99.90
12655;DHT22;6392;44.644;11.448;2022-08-19T08:47:35;20.00;99.90
12655;DHT22;6392;44.644;11.448;2022-08-19T08:50:06;20.00;99.90
12655;DHT22;6392;44.644;11.448;2022-08-19T08:52:37;20.00;99.90
12655;DHT22;6392;44.644;11.448;2022-08-19T08:55:11;20.20;99.90
12655;DHT22;6392;44.644;11.448;2022-08-19T08:57:51;20.10;99.90
12655;DHT22;6392;44.644;11.448;2022-08-19T09:00:25;20.10;99.90
12655;DHT22;6392;44.644;11.448;2022-08-19T09:02:53;20.20;99.90
12655;DHT22;6392;44.644;11.448;2022-08-19T09:05:21;20.30;99.90
12655;DHT22;6392;44.644;11.448;2022-08-19T09:07:55;20.40;99.90
12655;DHT22;6392;44.644;11.448;2022-08-19T09:10:29;20.30;99.90
12655;DHT22;6392;44.644;11.448;2022-08-19T09:13:07;20.30;99.90
12655;DHT22;6392;44.644;11.448;2022-08-19T09:15:43;20.50;99.90
12655;DHT22;6392;44.644;11.448;2022-08-19T09:18:12;20.60;99.90
12655;DHT22;6392;44.644;11.448;2022-08-19T09:20:39;20.70;99.90
12655;DHT22;6392;44.644;11.448;2022-08-19T09:23:06;20.70;99.90
12655;DHT22;6392;44.644;11.448;2022-08-19T09:25:34;20.70;99.90
12655;DHT22;6392;44.644;11.448;2022-08-19T09:28:02;20.70;99.90
12655;DHT22;6392;44.644;11.448;2022-08-19T09:30:34;20.70;99.90
12655;DHT22;6392;44.644;11.448;2022-08-19T09:33:03;20.70;99.90
12655;DHT22;6392;44.644;11.448;2022-08-19T09:35:32;20.80;99.90
12655;DHT22;6392;44.644;11.448;2022-08-19T09:38:01;20.80;99.90
12655;DHT22;6392;44.644;11.448;2022-08-19T09:40:29;20.90;99.90
12655;DHT22;6392;44.644;11.448;2022-08-19T09:42:56;20.90;99.90
12655;DHT22;6392;44.644;11.448;2022-08-19T09:45:28;21.00;99.90
12655;DHT22;6392;44.644;11.448;2022-08-19T09:47:56;21.00;99.90
12655;DHT22;6392;44.644;11.448;2022-08-19T09:50:25;21.10;99.90
12655;DHT22;6392;44.644;11.448;2022-08-19T09:52:52;21.10;99.90
12655;DHT22;6392;44.644;11.448;2022-08-19T09:55:20;21.10;99.90
12655;DHT22;6392;44.644;11.448;2022-08-19T09:57:47;21.20;99.90
12655;DHT22;6392;44.644;11.448;2022-08-19T10:00:14;21.30;99.90
12655;DHT22;6392;44.644;11.448;2022-08-19T10:02:41;21.50;99.90
12655;DHT22;6392;44.644;11.448;2022-08-19T10:05:08;21.50;99.90
12655;DHT22;6392;44.644;11.448;2022-08-19T10:07:54;21.60;99.90
12655;DHT22;6392;44.644;11.448;2022-08-19T10:10:21;21.70;99.90
12655;DHT22;6392;44.644;11.448;2022-08-19T10:12:48;21.60;99.90
12655;DHT22;6392;44.644;11.448;2022-08-19T10:15:15;21.70;99.90
12655;DHT22;6392;44.644;11.448;2022-08-19T10:17:46;21.80;99.90
12655;DHT22;6392;44.644;11.448;2022-08-19T10:20:13;22.00;99.90
12655;DHT22;6392;44.644;11.448;2022-08-19T10:22:40;21.80;99.90
12655;DHT22;6392;44.644;11.448;2022-08-19T10:25:10;21.70;99.90
12655;DHT22;6392;44.644;11.448;2022-08-19T10:27:42;21.70;99.90
12655;DHT22;6392;44.644;11.448;2022-08-19T10:30:10;21.70;99.90
12655;DHT22;6392;44.644;11.448;2022-08-19T10:32:37;21.80;99.90
12655;DHT22;6392;44.644;11.448;2022-08-19T10:35:05;22.00;99.90
12655;DHT22;6392;44.644;11.448;2022-08-19T10:37:33;22.20;99.90
12655;DHT22;6392;44.644;11.448;2022-08-19T10:40:01;22.30;99.90
12655;DHT22;6392;44.644;11.448;2022-08-19T10:42:30;22.30;99.90
12655;DHT22;6392;44.644;11.448;2022-08-19T10:44:57;22.20;99.90
12655;DHT22;6392;44.644;11.448;2022-08-19T10:47:24;22.30;99.90
12655;DHT22;6392;44.644;11.448;2022-08-19T10:49:53;22.30;99.90
12655;DHT22;6392;44.644;11.448;2022-08-19T10:52:39;22.30;99.90
12655;DHT22;6392;44.644;11.448;2022-08-19T10:55:07;22.30;99.90
12655;DHT22;6392;44.644;11.448;2022-08-19T10:57:53;22.30;99.90
12655;DHT22;6392;44.644;11.448;2022-08-19T11:00:21;22.40;99.90
12655;DHT22;6392;44.644;11.448;2022-08-19T11:02:49;22.40;99.90
12655;DHT22;6392;44.644;11.448;2022-08-19T11:05:17;22.50;99.90
12655;DHT22;6392;44.644;11.448;2022-08-19T11:07:45;22.60;99.90
12655;DHT22;6392;44.644;11.448;2022-08-19T11:10:13;22.70;99.90
12655;DHT22;6392;44.644;11.448;2022-08-19T11:12:44;22.60;99.90
12655;DHT22;6392;44.644;11.448;2022-08-19T11:15:15;22.50;99.90
12655;DHT22;6392;44.644;11.448;2022-08-19T11:17:43;22.60;99.90
12655;DHT22;6392;44.644;11.448;2022-08-19T11:20:11;22.70;99.90
12655;DHT22;6392;44.644;11.448;2022-08-19T11:22:38;22.90;99.90
12655;DHT22;6392;44.644;11.448;2022-08-19T11:25:06;23.00;99.90
12655;DHT22;6392;44.644;11.448;2022-08-19T11:27:37;23.20;99.90
12655;DHT22;6392;44.644;11.448;2022-08-19T11:30:08;23.30;99.90
12655;DHT22;6392;44.644;11.448;2022-08-19T11:32:37;23.30;99.90
12655;DHT22;6392;44.644;11.448;2022-08-19T11:35:05;23.30;99.90
12655;DHT22;6392;44.644;11.448;2022-08-19T11:37:32;23.20;99.90
12655;DHT22;6392;44.644;11.448;2022-08-19T11:40:04;23.20;99.90
12655;DHT22;6392;44.644;11.448;2022-08-19T11:42:31;23.20;99.90
12655;DHT22;6392;44.644;11.448;2022-08-19T11:45:21;23.30;99.90
12655;DHT22;6392;44.644;11.448;2022-08-19T11:47:50;23.50;99.90
12655;DHT22;6392;44.644;11.448;2022-08-19T11:50:17;23.60;99.90
12655;DHT22;6392;44.644;11.448;2022-08-19T11:52:45;23.40;99.90
12655;DHT22;6392;44.644;11.448;2022-08-19T11:55:12;23.40;99.90
12655;DHT22;6392;44.644;11.448;2022-08-19T11:57:40;23.40;99.90
12655;DHT22;6392;44.644;11.448;2022-08-19T12:00:10;23.80;99.90
12655;DHT22;6392;44.644;11.448;2022-08-19T12:02:38;23.80;99.90
12655;DHT22;6392;44.644;11.448;2022-08-19T12:05:08;23.80;99.90
12655;DHT22;6392;44.644;11.448;2022-08-19T12:07:35;24.00;99.90
12655;DHT22;6392;44.644;11.448;2022-08-19T12:10:03;24.10;99.90
12655;DHT22;6392;44.644;11.448;2022-08-19T12:12:30;24.10;99.90
12655;DHT22;6392;44.644;11.448;2022-08-19T12:14:57;24.00;99.90
12655;DHT22;6392;44.644;11.448;2022-08-19T12:17:25;24.10;99.90
12655;DHT22;6392;44.644;11.448;2022-08-19T12:19:53;24.30;99.90
12655;DHT22;6392;44.644;11.448;2022-08-19T12:22:22;24.40;99.90
12655;DHT22;6392;44.644;11.448;2022-08-19T12:24:49;24.40;99.90
12655;DHT22;6392;44.644;11.448;2022-08-19T12:27:18;24.40;99.90
12655;DHT22;6392;44.644;11.448;2022-08-19T12:29:45;24.40;99.90
12655;DHT22;6392;44.644;11.448;2022-08-19T12:32:12;24.60;99.90
12655;DHT22;6392;44.644;11.448;2022-08-19T12:34:39;24.80;99.90
12655;DHT22;6392;44.644;11.448;2022-08-19T12:37:07;24.70;99.90
12655;DHT22;6392;44.644;11.448;2022-08-19T12:39:37;24.60;99.90
12655;DHT22;6392;44.644;11.448;2022-08-19T12:42:05;24.60;99.90
12655;DHT22;6392;44.644;11.448;2022-08-19T12:44:33;24.60;99.90
12655;DHT22;6392;44.644;11.448;2022-08-19T12:47:00;24.70;99.90
12655;DHT22;6392;44.644;11.448;2022-08-19T12:49:28;24.90;99.90
12655;DHT22;6392;44.644;11.448;2022-08-19T12:51:56;25.00;99.90
12655;DHT22;6392;44.644;11.448;2022-08-19T12:54:24;25.20;99.90
12655;DHT22;6392;44.644;11.448;2022-08-19T12:56:52;25.20;99.90
12655;DHT22;6392;44.644;11.448;2022-08-19T12:59:20;25.40;99.90
12655;DHT22;6392;44.644;11.448;2022-08-19T13:01:47;25.40;99.90
12655;DHT22;6392;44.644;11.448;2022-08-19T13:04:15;25.40;99.90
12655;DHT22;6392;44.644;11.448;2022-08-19T13:06:42;25.60;99.90
12655;DHT22;6392;44.644;11.448;2022-08-19T13:09:09;25.70;99.90
12655;DHT22;6392;44.644;11.448;2022-08-19T13:11:37;25.70;99.90
12655;DHT22;6392;44.644;11.448;2022-08-19T13:14:06;25.80;99.90
12655;DHT22;6392;44.644;11.448;2022-08-19T13:16:33;25.80;99.90
12655;DHT22;6392;44.644;11.448;2022-08-19T13:19:00;25.70;99.90
12655;DHT22;6392;44.644;11.448;2022-08-19T13:21:32;25.40;99.90
12655;DHT22;6392;44.644;11.448;2022-08-19T13:24:03;25.30;99.90
12655;DHT22;6392;44.644;11.448;2022-08-19T13:26:30;25.40;99.90
12655;DHT22;6392;44.644;11.448;2022-08-19T13:28:57;25.70;99.90
12655;DHT22;6392;44.644;11.448;2022-08-19T13:31:54;26.00;99.90
12655;DHT22;6392;44.644;11.448;2022-08-19T13:34:38;26.10;99.90
12655;DHT22;6392;44.644;11.448;2022-08-19T13:37:05;26.00;99.90
12655;DHT22;6392;44.644;11.448;2022-08-19T13:39:34;26.00;99.90
12655;DHT22;6392;44.644;11.448;2022-08-19T13:42:06;26.10;99.90
12655;DHT22;6392;44.644;11.448;2022-08-19T13:44:34;25.90;99.90
12655;DHT22;6392;44.644;11.448;2022-08-19T13:47:04;25.70;99.90
12655;DHT22;6392;44.644;11.448;2022-08-19T13:49:34;25.60;99.90
12655;DHT22;6392;44.644;11.448;2022-08-19T13:52:03;25.70;99.90
12655;DHT22;6392;44.644;11.448;2022-08-19T13:54:31;26.00;99.90
12655;DHT22;6392;44.644;11.448;2022-08-19T13:56:58;26.20;99.90
12655;DHT22;6392;44.644;11.448;2022-08-19T13:59:25;26.40;99.90
12655;DHT22;6392;44.644;11.448;2022-08-19T14:01:52;26.60;99.90
12655;DHT22;6392;44.644;11.448;2022-08-19T14:04:20;26.60;99.90
12655;DHT22;6392;44.644;11.448;2022-08-19T14:06:47;26.70;99.90
12655;DHT22;6392;44.644;11.448;2022-08-19T14:09:15;26.90;99.90
12655;DHT22;6392;44.644;11.448;2022-08-19T14:11:42;27.00;99.90
12655;DHT22;6392;44.644;11.448;2022-08-19T14:14:11;27.20;99.90
12655;DHT22;6392;44.644;11.448;2022-08-19T14:16:38;27.30;99.90
12655;DHT22;6392;44.644;11.448;2022-08-19T14:19:05;27.40;99.90
12655;DHT22;6392;44.644;11.448;2022-08-19T14:21:34;27.40;99.90
12655;DHT22;6392;44.644;11.448;2022-08-19T14:24:02;27.40;99.90
12655;DHT22;6392;44.644;11.448;2022-08-19T14:26:29;27.50;99.90
12655;DHT22;6392;44.644;11.448;2022-08-19T14:28:56;27.50;99.90
12655;DHT22;6392;44.644;11.448;2022-08-19T14:31:23;27.60;99.90
12655;DHT22;6392;44.644;11.448;2022-08-19T14:33:51;27.70;99.90
12655;DHT22;6392;44.644;11.448;2022-08-19T14:36:19;27.70;99.90
12655;DHT22;6392;44.644;11.448;2022-08-19T14:38:48;27.90;99.90
12655;DHT22;6392;44.644;11.448;2022-08-19T14:41:18;27.90;99.90
12655;DHT22;6392;44.644;11.448;2022-08-19T14:43:48;28.00;99.90
12655;DHT22;6392;44.644;11.448;2022-08-19T14:46:17;28.00;99.90
12655;DHT22;6392;44.644;11.448;2022-08-19T14:48:46;28.00;99.90
12655;DHT22;6392;44.644;11.448;2022-08-19T14:51:13;28.10;99.90
12655;DHT22;6392;44.644;11.448;2022-08-19T14:53:41;28.10;99.90
12655;DHT22;6392;44.644;11.448;2022-08-19T14:56:10;28.10;99.90
12655;DHT22;6392;44.644;11.448;2022-08-19T14:58:37;28.10;99.90
12655;DHT22;6392;44.644;11.448;2022-08-19T15:01:05;28.20;99.90
12655;DHT22;6392;44.644;11.448;2022-08-19T15:03:33;28.10;99.90
12655;DHT22;6392;44.644;11.448;2022-08-19T15:06:01;27.90;99.90
12655;DHT22;6392;44.644;11.448;2022-08-19T15:08:30;27.70;99.90
12655;DHT22;6392;44.644;11.448;2022-08-19T15:10:58;27.50;99.90
12655;DHT22;6392;44.644;11.448;2022-08-19T15:13:28;27.10;99.90
12655;DHT22;6392;44.644;11.448;2022-08-19T15:15:56;26.80;99.90
12655;DHT22;6392;44.644;11.448;2022-08-19T15:18:23;26.80;99.90
12655;DHT22;6392;44.644;11.448;2022-08-19T15:20:51;26.80;99.90
12655;DHT22;6392;44.644;11.448;2022-08-19T15:23:18;27.00;99.90
12655;DHT22;6392;44.644;11.448;2022-08-19T15:25:46;27.40;99.90
12655;DHT22;6392;44.644;11.448;2022-08-19T15:28:13;27.70;99.90
12655;DHT22;6392;44.644;11.448;2022-08-19T15:30:43;28.00;99.90
12655;DHT22;6392;44.644;11.448;2022-08-19T15:33:11;28.10;99.90
12655;DHT22;6392;44.644;11.448;2022-08-19T15:35:40;28.20;99.90
12655;DHT22;6392;44.644;11.448;2022-08-19T15:38:08;28.40;99.90
12655;DHT22;6392;44.644;11.448;2022-08-19T15:40:35;28.50;99.90
12655;DHT22;6392;44.644;11.448;2022-08-19T15:43:02;28.60;99.90
12655;DHT22;6392;44.644;11.448;2022-08-19T15:45:30;28.70;99.90
12655;DHT22;6392;44.644;11.448;2022-08-19T15:48:00;28.60;99.90
12655;DHT22;6392;44.644;11.448;2022-08-19T15:50:28;28.40;99.90
12655;DHT22;6392;44.644;11.448;2022-08-19T15:52:58;27.90;99.90
12655;DHT22;6392;44.644;11.448;2022-08-19T15:55:29;27.50;99.90
12655;DHT22;6392;44.644;11.448;2022-08-19T15:57:57;27.10;99.90